Time;durP1;ratioP1;P1;durP2;ratioP2;P2;SDS_P1;SDS_P2;PMS_P1;PMS_P2;Temp;Humidity;BMP_temperature;BMP_pressure;BME280_temperature;BME280_humidity;BME280_pressure;Samples;Min_cycle;Max_cycle;Signal;HPM_P1;HPM_P2
2023/02/11 00:01:43;;;;;;;28.27;4.00;;;;;;;;;;5006656;28;20202;-72
2023/02/11 00:04:08;;;;;;;13.70;4.60;;;;;;;;;;5006017;28;20587;-72
2023/02/11 00:06:34;;;;;;;17.70;4.03;;;;;;;;;;5011004;28;20645;-72
2023/02/11 00:08:59;;;;;;;15.50;3.50;;;;;;;;;;5006260;28;20267;-72
2023/02/11 00:11:29;;;;;;;12.00;3.03;;;;;;;;;;5009890;28;20266;-72
2023/02/11 00:13:54;;;;;;;13.63;3.10;;;;;;;;;;5011141;28;20233;-72
2023/02/11 00:16:19;;;;;;;15.80;3.00;;;;;;;;;;5004990;28;20211;-72
2023/02/11 00:18:45;;;;;;;23.30;3.97;;;;;;;;;;5013764;28;20191;-72
2023/02/11 00:21:14;;;;;;;13.17;4.20;;;;;;;;;;5011628;28;20221;-72
2023/02/11 00:23:40;;;;;;;17.70;3.47;;;;;;;;;;5011115;28;20202;-72
2023/02/11 00:26:16;;;;;;;21.93;5.80;;;;;;;;;;5011224;28;20609;-73
2023/02/11 00:28:41;;;;;;;12.20;3.03;;;;;;;;;;5011348;28;20195;-71
2023/02/11 00:31:06;;;;;;;9.93;3.40;;;;;;;;;;5013795;28;20183;-71
2023/02/11 00:33:32;;;;;;;11.00;3.27;;;;;;;;;;5005302;28;20218;-71
2023/02/11 00:35:57;;;;;;;17.47;2.97;;;;;;;;;;5005371;28;20539;-73
2023/02/11 00:38:22;;;;;;;18.13;4.40;;;;;;;;;;5009967;28;20210;-72
2023/02/11 00:40:47;;;;;;;16.57;5.33;;;;;;;;;;5011257;28;20205;-72
2023/02/11 00:43:12;;;;;;;13.87;4.03;;;;;;;;;;5001192;28;20576;-72
2023/02/11 00:45:38;;;;;;;13.57;4.47;;;;;;;;;;5007919;28;20221;-73
2023/02/11 00:48:03;;;;;;;17.73;3.17;;;;;;;;;;5012692;28;20258;-73
2023/02/11 00:50:28;;;;;;;11.23;3.73;;;;;;;;;;5008745;28;20191;-73
2023/02/11 00:52:53;;;;;;;11.03;3.67;;;;;;;;;;5002990;28;20574;-72
2023/02/11 00:55:18;;;;;;;10.17;3.23;;;;;;;;;;5013594;28;20190;-73
2023/02/11 00:57:44;;;;;;;17.30;3.50;;;;;;;;;;5013227;28;20182;-73
2023/02/11 01:00:10;;;;;;;12.37;4.03;;;;;;;;;;5004445;28;20694;-73
2023/02/11 01:02:35;;;;;;;18.37;3.57;;;;;;;;;;5011681;28;20729;-72
2023/02/11 01:05:01;;;;;;;19.17;3.57;;;;;;;;;;5016847;28;20214;-73
2023/02/11 01:07:27;;;;;;;14.97;3.27;;;;;;;;;;4989677;28;20294;-74
2023/02/11 01:09:52;;;;;;;14.50;3.40;;;;;;;;;;5014077;28;20175;-71
2023/02/11 01:12:17;;;;;;;14.53;4.73;;;;;;;;;;5012767;28;20684;-71
2023/02/11 01:14:43;;;;;;;14.07;4.60;;;;;;;;;;5012729;28;20572;-71
2023/02/11 01:17:08;;;;;;;14.40;3.17;;;;;;;;;;5006373;28;20188;-71
2023/02/11 01:19:35;;;;;;;16.13;3.80;;;;;;;;;;5002712;28;20201;-73
2023/02/11 01:22:00;;;;;;;7.70;3.10;;;;;;;;;;5005991;28;20179;-71
2023/02/11 01:24:25;;;;;;;16.97;5.10;;;;;;;;;;4999768;28;20175;-73
2023/02/11 01:26:50;;;;;;;9.90;2.73;;;;;;;;;;5001513;28;20566;-72
2023/02/11 01:29:15;;;;;;;9.70;3.60;;;;;;;;;;5000226;28;20277;-73
2023/02/11 01:31:41;;;;;;;12.30;3.33;;;;;;;;;;4997144;28;20726;-73
2023/02/11 01:34:06;;;;;;;12.73;3.23;;;;;;;;;;5004205;28;20261;-71
2023/02/11 01:36:31;;;;;;;9.83;3.07;;;;;;;;;;5001577;28;20662;-72
2023/02/11 01:38:56;;;;;;;13.83;3.17;;;;;;;;;;4996670;28;20237;-71
2023/02/11 01:41:21;;;;;;;16.80;4.03;;;;;;;;;;4998687;28;20187;-71
2023/02/11 01:43:48;;;;;;;15.30;3.93;;;;;;;;;;5012377;28;20191;-71
2023/02/11 01:46:34;;;;;;;17.63;3.70;;;;;;;;;;4999016;28;20529;-72
2023/02/11 01:48:59;;;;;;;21.07;4.50;;;;;;;;;;4989478;28;20183;-73
2023/02/11 01:51:28;;;;;;;18.20;3.97;;;;;;;;;;4997876;28;20194;-72
2023/02/11 01:59:30;;;;;;;21.63;4.63;;;;;;;;;;5008679;28;20208;-71
2023/02/11 02:01:57;;;;;;;13.77;4.63;;;;;;;;;;5007046;28;20621;-72
2023/02/11 02:04:26;;;;;;;13.03;3.97;;;;;;;;;;5010001;28;20198;-72
2023/02/11 02:06:54;;;;;;;12.93;3.83;;;;;;;;;;5002004;28;20263;-73
2023/02/11 02:09:25;;;;;;;15.87;4.33;;;;;;;;;;4993863;28;20183;-71
2023/02/11 02:11:50;;;;;;;13.67;4.07;;;;;;;;;;4990988;28;20197;-71
2023/02/11 02:14:16;;;;;;;14.90;4.00;;;;;;;;;;4994139;28;20207;-71
2023/02/11 02:16:41;;;;;;;13.37;4.90;;;;;;;;;;5000792;28;20201;-71
2023/02/11 02:19:25;;;;;;;15.00;4.67;;;;;;;;;;5007636;28;20767;-71
2023/02/11 02:21:56;;;;;;;9.27;4.20;;;;;;;;;;5008356;28;20176;-71
2023/02/11 02:24:40;;;;;;;14.60;4.43;;;;;;;;;;5008358;28;20214;-72
2023/02/11 02:27:17;;;;;;;18.60;4.47;;;;;;;;;;5010043;28;20178;-71
2023/02/11 02:29:54;;;;;;;15.47;4.00;;;;;;;;;;5009005;28;20182;-71
2023/02/11 02:32:22;;;;;;;16.77;3.73;;;;;;;;;;5012510;28;20222;-73
2023/02/11 02:35:24;;;;;;;13.70;4.03;;;;;;;;;;5012079;28;20175;-73
2023/02/11 02:37:54;;;;;;;13.33;4.07;;;;;;;;;;4930377;29;20678;-73
2023/02/11 02:40:24;;;;;;;14.27;4.70;;;;;;;;;;5000385;28;20210;-73
2023/02/11 02:42:49;;;;;;;9.70;4.53;;;;;;;;;;5013511;28;20218;-72
2023/02/11 02:45:15;;;;;;;18.23;5.57;;;;;;;;;;5007742;28;20712;-72
2023/02/11 02:47:40;;;;;;;19.40;4.90;;;;;;;;;;5006589;28;20624;-72
2023/02/11 02:50:07;;;;;;;13.77;4.40;;;;;;;;;;5015519;28;20548;-72
2023/02/11 02:52:50;;;;;;;12.37;4.47;;;;;;;;;;5010197;28;20218;-72
2023/02/11 02:55:16;;;;;;;16.20;4.20;;;;;;;;;;5008622;28;20189;-72
2023/02/11 02:57:59;;;;;;;25.97;6.10;;;;;;;;;;5005438;28;20183;-72
2023/02/11 03:00:47;;;;;;;13.60;5.50;;;;;;;;;;5003193;28;20211;-72
2023/02/11 03:03:32;;;;;;;18.03;5.20;;;;;;;;;;5012140;28;20234;-72
2023/02/11 03:05:57;;;;;;;11.23;5.17;;;;;;;;;;5004891;28;20673;-72
2023/02/11 03:08:27;;;;;;;21.33;5.90;;;;;;;;;;5013356;28;20179;-72
2023/02/11 03:10:52;;;;;;;16.33;5.63;;;;;;;;;;5002622;28;20171;-72
2023/02/11 03:13:20;;;;;;;17.33;5.57;;;;;;;;;;4997491;28;20585;-72
2023/02/11 03:15:48;;;;;;;21.03;6.60;;;;;;;;;;5009565;28;20183;-72
2023/02/11 03:18:15;;;;;;;17.57;6.17;;;;;;;;;;5011020;28;20538;-72
2023/02/11 03:20:41;;;;;;;18.33;7.17;;;;;;;;;;5012982;28;20271;-72
2023/02/11 03:23:10;;;;;;;20.20;7.10;;;;;;;;;;5006843;28;20202;-72
2023/02/11 03:25:42;;;;;;;16.03;7.37;;;;;;;;;;5009764;28;20187;-72
2023/02/11 03:28:13;;;;;;;15.23;6.43;;;;;;;;;;4998809;28;20175;-72
2023/02/11 03:30:42;;;;;;;18.03;6.87;;;;;;;;;;4993836;28;20191;-72
2023/02/11 03:33:30;;;;;;;23.63;9.23;;;;;;;;;;4995758;28;20693;-72
2023/02/11 03:35:59;;;;;;;21.43;7.50;;;;;;;;;;4986195;28;20281;-72
2023/02/11 03:38:28;;;;;;;19.70;6.50;;;;;;;;;;4998080;28;20455;-72
2023/02/11 03:40:54;;;;;;;22.17;7.17;;;;;;;;;;4998684;28;20219;-72
2023/02/11 03:43:21;;;;;;;19.87;7.60;;;;;;;;;;4996910;28;20200;-72
2023/02/11 03:45:48;;;;;;;26.10;7.77;;;;;;;;;;4995985;28;20753;-72
2023/02/11 03:48:15;;;;;;;17.37;6.57;;;;;;;;;;5003872;28;20212;-72
2023/02/11 03:50:41;;;;;;;23.27;7.50;;;;;;;;;;5000919;28;20214;-72
2023/02/11 03:53:06;;;;;;;14.63;6.47;;;;;;;;;;5002679;28;20677;-73
2023/02/11 03:55:33;;;;;;;19.13;7.83;;;;;;;;;;5012784;28;20177;-72
2023/02/11 03:57:58;;;;;;;22.10;7.63;;;;;;;;;;5007036;28;20237;-72
2023/02/11 04:00:31;;;;;;;16.93;7.70;;;;;;;;;;5011207;28;20190;-71
2023/02/11 04:02:56;;;;;;;21.90;7.93;;;;;;;;;;5010747;28;20194;-71
2023/02/11 04:05:21;;;;;;;27.77;8.97;;;;;;;;;;5012856;28;20175;-72
2023/02/11 04:07:46;;;;;;;23.83;8.73;;;;;;;;;;5003774;28;20211;-71
2023/02/11 04:10:12;;;;;;;24.17;8.60;;;;;;;;;;5008681;28;20187;-71
2023/02/11 04:12:37;;;;;;;23.13;8.83;;;;;;;;;;5012362;28;20203;-72
2023/02/11 04:15:02;;;;;;;20.03;9.37;;;;;;;;;;5002856;28;20600;-71
2023/02/11 04:17:27;;;;;;;25.23;10.47;;;;;;;;;;5006587;28;20176;-74
2023/02/11 04:19:53;;;;;;;25.30;10.87;;;;;;;;;;5009739;28;20607;-74
2023/02/11 04:22:18;;;;;;;24.90;9.83;;;;;;;;;;5008213;28;20195;-71
2023/02/11 04:24:43;;;;;;;26.37;9.67;;;;;;;;;;5007271;28;20523;-71
2023/02/11 04:27:09;;;;;;;24.87;10.00;;;;;;;;;;5001482;28;20188;-71
2023/02/11 04:29:34;;;;;;;21.47;10.33;;;;;;;;;;5011568;28;20258;-73
2023/02/11 04:31:59;;;;;;;28.00;10.27;;;;;;;;;;5007602;28;20691;-72
2023/02/11 04:34:24;;;;;;;24.80;11.40;;;;;;;;;;5013487;28;20660;-72
2023/02/11 04:36:49;;;;;;;34.50;11.53;;;;;;;;;;5012259;28;20210;-73
2023/02/11 04:39:15;;;;;;;27.43;10.47;;;;;;;;;;5012319;28;20236;-71
2023/02/11 04:41:40;;;;;;;30.70;10.30;;;;;;;;;;5004276;28;20179;-71
2023/02/11 04:44:05;;;;;;;24.57;9.77;;;;;;;;;;5003657;28;20199;-71
2023/02/11 04:46:31;;;;;;;26.70;10.63;;;;;;;;;;4997275;28;20197;-71
2023/02/11 04:48:56;;;;;;;23.60;12.20;;;;;;;;;;4998282;28;20175;-73
2023/02/11 04:51:21;;;;;;;25.50;10.87;;;;;;;;;;5008453;28;20656;-73
2023/02/11 04:53:46;;;;;;;30.70;10.83;;;;;;;;;;5005051;28;20235;-73
2023/02/11 04:56:12;;;;;;;26.87;12.00;;;;;;;;;;5002920;28;20211;-71
2023/02/11 04:58:37;;;;;;;23.33;10.93;;;;;;;;;;5010969;28;20183;-73
2023/02/11 05:01:09;;;;;;;27.93;11.20;;;;;;;;;;5010425;28;20238;-73
2023/02/11 05:03:35;;;;;;;27.47;11.60;;;;;;;;;;5010542;28;20286;-71
2023/02/11 05:06:00;;;;;;;31.13;12.73;;;;;;;;;;5012537;28;20218;-72
2023/02/11 05:08:25;;;;;;;33.23;12.13;;;;;;;;;;5011313;28;20202;-72
2023/02/11 05:10:51;;;;;;;24.90;12.57;;;;;;;;;;5013820;28;20175;-72
2023/02/11 05:13:16;;;;;;;25.93;11.20;;;;;;;;;;5005525;28;20692;-72
2023/02/11 05:15:41;;;;;;;26.87;10.93;;;;;;;;;;5000741;28;20551;-72
2023/02/11 05:18:06;;;;;;;26.40;11.73;;;;;;;;;;4994649;28;20198;-72
2023/02/11 05:20:31;;;;;;;26.67;11.17;;;;;;;;;;5001871;28;20195;-72
2023/02/11 05:22:57;;;;;;;36.50;12.17;;;;;;;;;;5006155;28;20199;-72
2023/02/11 05:25:22;;;;;;;27.13;11.10;;;;;;;;;;4995311;28;20226;-72
2023/02/11 05:27:47;;;;;;;31.67;12.93;;;;;;;;;;4993917;28;20527;-72
2023/02/11 05:30:12;;;;;;;35.17;12.93;;;;;;;;;;5008950;28;20238;-72
2023/02/11 05:32:37;;;;;;;22.80;12.37;;;;;;;;;;5001098;28;20207;-72
2023/02/11 05:35:03;;;;;;;31.03;12.83;;;;;;;;;;5004585;28;20246;-72
2023/02/11 05:37:28;;;;;;;38.53;12.03;;;;;;;;;;5004797;28;20183;-72
2023/02/11 05:39:53;;;;;;;39.40;13.23;;;;;;;;;;5001660;28;20207;-72
2023/02/11 05:42:18;;;;;;;28.03;12.20;;;;;;;;;;4997328;28;20216;-72
2023/02/11 05:44:44;;;;;;;28.77;12.30;;;;;;;;;;5007184;28;20383;-72
2023/02/11 05:47:09;;;;;;;26.00;12.43;;;;;;;;;;5006700;28;20195;-72
2023/02/11 05:49:34;;;;;;;27.17;12.40;;;;;;;;;;5007340;28;20547;-73
2023/02/11 05:51:59;;;;;;;30.87;12.37;;;;;;;;;;5009231;28;20638;-72
2023/02/11 05:54:25;;;;;;;29.33;12.83;;;;;;;;;;5004997;28;20199;-72
2023/02/11 05:56:50;;;;;;;35.33;13.27;;;;;;;;;;5008034;28;20179;-72
2023/02/11 05:59:15;;;;;;;30.33;13.17;;;;;;;;;;5004134;28;20179;-72
2023/02/11 06:01:40;;;;;;;32.97;14.33;;;;;;;;;;5008052;28;20714;-72
2023/02/11 06:04:05;;;;;;;31.37;13.33;;;;;;;;;;5007930;28;20679;-72
2023/02/11 06:06:31;;;;;;;32.40;14.97;;;;;;;;;;5007029;28;20175;-72
2023/02/11 06:08:56;;;;;;;35.67;14.60;;;;;;;;;;5006836;28;20179;-73
2023/02/11 06:11:21;;;;;;;33.40;13.90;;;;;;;;;;5007635;28;20186;-73
2023/02/11 06:13:46;;;;;;;32.67;14.07;;;;;;;;;;5007983;28;20207;-73
2023/02/11 06:16:11;;;;;;;35.00;15.37;;;;;;;;;;5006557;28;20674;-73
2023/02/11 06:18:37;;;;;;;31.67;13.97;;;;;;;;;;4999115;28;20265;-71
2023/02/11 06:21:05;;;;;;;39.80;14.13;;;;;;;;;;5006256;28;20210;-71
2023/02/11 06:23:30;;;;;;;34.13;14.77;;;;;;;;;;5003906;28;20210;-74
2023/02/11 06:25:59;;;;;;;37.80;15.83;;;;;;;;;;5001549;28;20174;-73
2023/02/11 06:28:25;;;;;;;45.77;16.80;;;;;;;;;;5006802;28;20179;-73
2023/02/11 06:30:50;;;;;;;34.30;14.20;;;;;;;;;;5006121;28;20183;-73
2023/02/11 06:33:15;;;;;;;33.07;13.77;;;;;;;;;;5008150;28;20237;-73
2023/02/11 06:35:40;;;;;;;34.37;13.97;;;;;;;;;;5004382;28;20198;-73
2023/02/11 06:38:06;;;;;;;31.47;15.30;;;;;;;;;;4995389;28;20188;-73
2023/02/11 06:40:31;;;;;;;40.37;15.50;;;;;;;;;;5007031;28;20202;-71
2023/02/11 06:42:56;;;;;;;27.60;14.27;;;;;;;;;;5001825;28;20198;-71
2023/02/11 06:45:21;;;;;;;37.63;16.50;;;;;;;;;;5009206;28;20267;-72
2023/02/11 06:47:46;;;;;;;30.60;13.93;;;;;;;;;;5006511;28;20241;-72
2023/02/11 06:50:13;;;;;;;33.57;15.47;;;;;;;;;;5006915;28;20214;-72
2023/02/11 06:52:38;;;;;;;32.23;14.43;;;;;;;;;;5003804;28;20246;-72
2023/02/11 06:55:04;;;;;;;27.70;14.40;;;;;;;;;;5009301;28;20183;-72
2023/02/11 06:57:29;;;;;;;34.13;15.57;;;;;;;;;;5004039;28;20188;-72
2023/02/11 06:59:55;;;;;;;40.80;16.60;;;;;;;;;;5007550;28;20203;-72
2023/02/11 07:02:20;;;;;;;32.37;16.00;;;;;;;;;;4993647;28;20191;-74
2023/02/11 07:04:45;;;;;;;34.43;14.30;;;;;;;;;;4991314;28;20267;-72
2023/02/11 07:07:10;;;;;;;34.10;14.27;;;;;;;;;;4994744;28;20189;-72
2023/02/11 07:09:35;;;;;;;31.10;14.67;;;;;;;;;;4994469;28;20183;-74
2023/02/11 07:12:01;;;;;;;29.00;14.60;;;;;;;;;;4992738;28;20206;-72
2023/02/11 07:14:26;;;;;;;29.63;14.63;;;;;;;;;;4996475;28;20183;-72
2023/02/11 07:16:51;;;;;;;32.93;14.80;;;;;;;;;;5001849;28;20245;-72
2023/02/11 07:19:16;;;;;;;35.07;14.63;;;;;;;;;;4997984;28;20179;-74
2023/02/11 07:21:41;;;;;;;33.40;16.10;;;;;;;;;;5009571;28;20293;-72
2023/02/11 07:24:07;;;;;;;33.00;15.37;;;;;;;;;;5000834;28;20728;-72
2023/02/11 07:26:32;;;;;;;31.33;14.57;;;;;;;;;;4996192;28;20767;-72
2023/02/11 07:28:58;;;;;;;30.17;15.23;;;;;;;;;;4995921;28;20625;-72
2023/02/11 07:31:24;;;;;;;29.33;15.33;;;;;;;;;;4999701;28;20777;-72
2023/02/11 07:33:51;;;;;;;27.60;15.23;;;;;;;;;;4996793;28;20218;-72
2023/02/11 07:36:16;;;;;;;28.70;15.40;;;;;;;;;;4996175;28;20187;-72
2023/02/11 07:38:42;;;;;;;35.60;15.67;;;;;;;;;;4996358;28;20187;-72
2023/02/11 07:41:09;;;;;;;30.37;15.03;;;;;;;;;;4994112;28;20208;-72
2023/02/11 07:43:35;;;;;;;27.00;14.17;;;;;;;;;;5006803;28;20231;-72
2023/02/11 07:46:09;;;;;;;27.30;14.73;;;;;;;;;;5007700;28;20180;-72
2023/02/11 07:48:35;;;;;;;24.00;14.37;;;;;;;;;;5008343;28;20179;-72
2023/02/11 07:51:06;;;;;;;34.20;14.97;;;;;;;;;;5009503;28;20210;-72
2023/02/11 07:53:31;;;;;;;27.73;14.37;;;;;;;;;;5011333;28;20230;-72
2023/02/11 07:55:56;;;;;;;28.90;14.73;;;;;;;;;;5013052;28;20199;-72
2023/02/11 07:58:21;;;;;;;27.37;14.63;;;;;;;;;;5009707;28;20220;-73
2023/02/11 08:00:46;;;;;;;25.67;14.20;;;;;;;;;;5010876;28;20286;-74
2023/02/11 08:03:12;;;;;;;24.67;14.70;;;;;;;;;;5003192;28;20195;-73
2023/02/11 08:05:37;;;;;;;30.57;15.33;;;;;;;;;;5012529;28;20617;-71
2023/02/11 08:08:02;;;;;;;31.07;14.50;;;;;;;;;;5011279;28;20171;-72
2023/02/11 08:10:28;;;;;;;23.10;14.13;;;;;;;;;;5013172;28;20375;-72
2023/02/11 08:12:54;;;;;;;25.83;15.40;;;;;;;;;;5010653;28;20206;-72
2023/02/11 08:15:19;;;;;;;25.80;15.40;;;;;;;;;;5008888;28;20183;-72
2023/02/11 08:17:44;;;;;;;34.67;14.97;;;;;;;;;;5005347;28;20219;-72
2023/02/11 08:20:09;;;;;;;31.57;16.30;;;;;;;;;;5004126;28;20688;-72
2023/02/11 08:22:34;;;;;;;32.90;15.20;;;;;;;;;;5008676;28;20209;-72
2023/02/11 08:25:00;;;;;;;27.50;15.10;;;;;;;;;;5010461;28;20643;-72
2023/02/11 08:27:26;;;;;;;28.93;15.57;;;;;;;;;;5007463;28;20175;-73
2023/02/11 08:29:52;;;;;;;32.87;15.00;;;;;;;;;;5009786;28;20186;-72
2023/02/11 08:32:17;;;;;;;29.67;16.13;;;;;;;;;;5005216;28;20675;-73
2023/02/11 08:34:42;;;;;;;34.23;17.30;;;;;;;;;;5005982;28;20259;-72
2023/02/11 08:37:07;;;;;;;28.97;16.63;;;;;;;;;;5004718;28;20198;-72
2023/02/11 08:39:33;;;;;;;28.33;15.77;;;;;;;;;;5009139;28;20202;-72
2023/02/11 08:41:58;;;;;;;27.03;15.90;;;;;;;;;;5007376;28;20602;-72
2023/02/11 08:44:23;;;;;;;32.03;15.70;;;;;;;;;;5003277;28;20199;-72
2023/02/11 08:46:49;;;;;;;28.87;16.50;;;;;;;;;;5006025;28;20203;-73
2023/02/11 08:49:15;;;;;;;26.00;16.47;;;;;;;;;;4997474;28;20176;-72
2023/02/11 08:51:40;;;;;;;37.00;17.20;;;;;;;;;;5006696;28;20186;-73
2023/02/11 08:54:08;;;;;;;31.10;14.97;;;;;;;;;;5008041;28;20253;-73
2023/02/11 08:56:33;;;;;;;30.10;16.30;;;;;;;;;;5005440;28;20183;-72
2023/02/11 08:58:58;;;;;;;26.63;15.73;;;;;;;;;;5012583;28;20206;-73
2023/02/11 09:01:25;;;;;;;31.53;16.33;;;;;;;;;;5012656;28;20202;-73
2023/02/11 09:03:50;;;;;;;29.10;15.90;;;;;;;;;;5011011;28;20458;-72
2023/02/11 09:06:17;;;;;;;33.93;17.10;;;;;;;;;;5006474;28;20228;-73
2023/02/11 09:08:43;;;;;;;34.03;18.37;;;;;;;;;;5009833;28;20182;-73
2023/02/11 09:11:09;;;;;;;34.40;17.90;;;;;;;;;;5010943;28;20187;-73
2023/02/11 09:13:34;;;;;;;27.93;15.57;;;;;;;;;;5009469;28;20337;-73
2023/02/11 09:16:00;;;;;;;32.47;16.40;;;;;;;;;;5011689;28;20552;-73
2023/02/11 09:18:27;;;;;;;27.63;16.40;;;;;;;;;;5007548;28;20195;-73
2023/02/11 09:20:52;;;;;;;27.87;15.23;;;;;;;;;;5008341;28;20209;-73
2023/02/11 09:23:19;;;;;;;25.87;15.77;;;;;;;;;;5011054;28;20223;-74
2023/02/11 09:25:44;;;;;;;28.60;16.33;;;;;;;;;;4996748;28;20260;-74
2023/02/11 09:28:10;;;;;;;34.57;17.07;;;;;;;;;;4996635;28;20663;-73
2023/02/11 09:30:35;;;;;;;30.63;16.77;;;;;;;;;;4997542;28;20187;-73
2023/02/11 09:33:01;;;;;;;28.33;16.97;;;;;;;;;;5000322;28;20619;-73
2023/02/11 09:35:26;;;;;;;28.23;18.17;;;;;;;;;;4999385;28;20230;-73
2023/02/11 09:37:51;;;;;;;27.07;16.23;;;;;;;;;;4998662;28;20599;-73
2023/02/11 09:40:17;;;;;;;27.03;16.60;;;;;;;;;;5000296;28;20691;-73
2023/02/11 09:42:48;;;;;;;29.83;16.63;;;;;;;;;;5005546;28;20218;-73
2023/02/11 09:45:21;;;;;;;30.07;15.30;;;;;;;;;;5001403;28;20186;-73
2023/02/11 09:47:48;;;;;;;26.73;16.37;;;;;;;;;;5011919;28;20225;-73
2023/02/11 09:50:17;;;;;;;24.57;16.30;;;;;;;;;;5006471;28;20615;-74
2023/02/11 09:53:02;;;;;;;27.73;15.60;;;;;;;;;;5012525;28;20290;-73
2023/02/11 09:55:38;;;;;;;29.40;15.90;;;;;;;;;;5012505;28;20191;-74
2023/02/11 09:58:11;;;;;;;25.90;14.50;;;;;;;;;;5004522;28;20180;-73
2023/02/11 10:00:39;;;;;;;28.43;15.87;;;;;;;;;;5000067;28;20324;-73
2023/02/11 10:03:31;;;;;;;27.37;16.43;;;;;;;;;;5009920;28;20199;-73
2023/02/11 10:06:34;;;;;;;28.90;16.70;;;;;;;;;;4996357;28;20194;-74
2023/02/11 10:09:02;;;;;;;26.80;16.30;;;;;;;;;;4934006;28;20187;-72
2023/02/11 10:11:28;;;;;;;28.07;16.07;;;;;;;;;;4927105;28;20186;-73
2023/02/11 10:14:00;;;;;;;26.33;14.80;;;;;;;;;;4962279;28;20211;-73
2023/02/11 10:16:31;;;;;;;24.07;16.17;;;;;;;;;;4997766;28;20664;-72
2023/02/11 10:19:06;;;;;;;22.00;14.27;;;;;;;;;;4996887;28;20229;-73
2023/02/11 10:21:45;;;;;;;24.33;14.70;;;;;;;;;;4999219;28;20208;-73
2023/02/11 10:24:11;;;;;;;23.77;15.30;;;;;;;;;;4992835;28;20257;-74
2023/02/11 10:26:38;;;;;;;20.90;13.27;;;;;;;;;;4994539;28;20182;-73
2023/02/11 10:29:10;;;;;;;25.70;15.10;;;;;;;;;;4999184;28;20190;-72
2023/02/11 10:31:38;;;;;;;26.17;14.43;;;;;;;;;;4991226;28;20186;-73
2023/02/11 10:34:05;;;;;;;26.37;16.10;;;;;;;;;;4982154;28;20602;-73
2023/02/11 10:36:34;;;;;;;23.33;14.50;;;;;;;;;;4991852;28;20265;-73
2023/02/11 10:39:20;;;;;;;24.87;14.83;;;;;;;;;;4992444;28;20183;-72
2023/02/11 10:41:46;;;;;;;21.47;13.30;;;;;;;;;;4991502;28;20294;-72
2023/02/11 10:44:20;;;;;;;21.53;14.37;;;;;;;;;;4996792;28;20265;-73
2023/02/11 10:46:46;;;;;;;19.40;13.73;;;;;;;;;;4993330;28;20184;-73
2023/02/11 10:49:31;;;;;;;26.50;13.53;;;;;;;;;;4994785;28;20175;-73
2023/02/11 10:52:11;;;;;;;23.70;14.53;;;;;;;;;;4999018;28;20186;-74
2023/02/11 10:54:36;;;;;;;24.43;13.20;;;;;;;;;;4999703;28;20593;-73
2023/02/11 10:57:02;;;;;;;22.20;13.80;;;;;;;;;;4999996;28;20209;-73
2023/02/11 10:59:32;;;;;;;22.37;13.30;;;;;;;;;;4996716;28;20195;-73
2023/02/11 11:02:17;;;;;;;25.57;13.90;;;;;;;;;;5000272;28;20180;-73
2023/02/11 11:04:44;;;;;;;21.77;12.60;;;;;;;;;;4998583;28;20178;-73
2023/02/11 11:07:12;;;;;;;21.67;13.23;;;;;;;;;;5004744;28;20185;-74
2023/02/11 11:09:43;;;;;;;21.40;13.93;;;;;;;;;;5010575;28;20183;-74
2023/02/11 11:12:27;;;;;;;18.87;13.20;;;;;;;;;;4997072;28;20172;-74
2023/02/11 11:14:56;;;;;;;20.87;12.07;;;;;;;;;;5003261;28;20232;-74
2023/02/11 11:17:21;;;;;;;21.13;13.37;;;;;;;;;;5003307;28;20199;-73
2023/02/11 11:19:47;;;;;;;24.40;14.70;;;;;;;;;;4999864;28;20226;-74
2023/02/11 11:22:19;;;;;;;26.53;14.57;;;;;;;;;;4996682;28;20592;-73
2023/02/11 11:24:45;;;;;;;24.33;14.83;;;;;;;;;;4994805;28;20178;-73
2023/02/11 11:27:30;;;;;;;24.90;15.13;;;;;;;;;;4996647;28;20180;-73
2023/02/11 11:29:56;;;;;;;25.17;13.70;;;;;;;;;;5001316;28;20612;-74
2023/02/11 11:32:23;;;;;;;25.00;14.90;;;;;;;;;;5001589;28;20215;-73
2023/02/11 11:34:55;;;;;;;23.73;13.67;;;;;;;;;;4996969;28;20191;-74
2023/02/11 11:37:28;;;;;;;24.00;14.60;;;;;;;;;;4997118;28;20187;-73
2023/02/11 11:40:20;;;;;;;20.33;13.45;;;;;;;;;;4995896;28;20198;-73
2023/02/11 11:42:46;;;;;;;21.57;13.00;;;;;;;;;;5000116;28;20227;-73
2023/02/11 11:45:14;;;;;;;23.00;14.63;;;;;;;;;;4998662;28;20175;-73
2023/02/11 11:47:45;;;;;;;21.07;13.87;;;;;;;;;;5005200;28;20206;-73
2023/02/11 11:50:13;;;;;;;19.25;13.48;;;;;;;;;;5003813;28;20676;-73
2023/02/11 11:52:57;;;;;;;22.42;13.70;;;;;;;;;;5001606;28;20191;-73
2023/02/11 11:55:28;;;;;;;19.67;13.03;;;;;;;;;;4996789;28;20645;-73
2023/02/11 11:57:53;;;;;;;20.80;14.48;;;;;;;;;;4999286;28;20198;-73
2023/02/11 12:00:21;;;;;;;20.10;13.88;;;;;;;;;;4995772;28;20204;-74
2023/02/11 12:02:52;;;;;;;18.88;12.27;;;;;;;;;;4999245;28;20202;-74
2023/02/11 12:05:31;;;;;;;21.38;13.25;;;;;;;;;;4995465;28;20216;-73
2023/02/11 12:08:07;;;;;;;20.90;14.02;;;;;;;;;;4996868;28;20191;-73
2023/02/11 12:10:32;;;;;;;21.38;12.60;;;;;;;;;;4996784;28;20183;-73
2023/02/11 12:13:08;;;;;;;17.67;12.63;;;;;;;;;;4994648;28;20261;-74
2023/02/11 12:15:53;;;;;;;21.45;12.38;;;;;;;;;;4997535;28;20179;-75
2023/02/11 12:18:18;;;;;;;22.23;12.43;;;;;;;;;;4997875;28;20175;-74
2023/02/11 12:20:54;;;;;;;23.15;12.25;;;;;;;;;;4994835;28;20211;-74
2023/02/11 12:23:23;;;;;;;18.25;12.00;;;;;;;;;;4993408;28;20195;-73
2023/02/11 12:25:48;;;;;;;17.40;11.85;;;;;;;;;;4982548;28;20293;-74
2023/02/11 12:28:19;;;;;;;16.85;12.35;;;;;;;;;;4992286;28;20266;-75
2023/02/11 12:30:50;;;;;;;20.45;12.73;;;;;;;;;;5004801;28;20275;-72
2023/02/11 12:33:25;;;;;;;15.77;11.18;;;;;;;;;;4989677;28;20222;-72
2023/02/11 12:35:53;;;;;;;16.83;11.63;;;;;;;;;;4993187;28;20197;-72
2023/02/11 12:38:18;;;;;;;17.80;12.07;;;;;;;;;;4995329;28;20215;-75
2023/02/11 12:40:45;;;;;;;17.42;11.90;;;;;;;;;;4996364;28;20618;-72
2023/02/11 12:43:16;;;;;;;15.40;10.30;;;;;;;;;;4998325;28;20210;-72
2023/02/11 12:45:47;;;;;;;17.08;11.23;;;;;;;;;;5005246;28;20189;-72
2023/02/11 12:48:15;;;;;;;17.87;11.27;;;;;;;;;;5007615;28;20171;-72
2023/02/11 12:50:59;;;;;;;19.47;11.73;;;;;;;;;;5009828;28;20270;-72
2023/02/11 12:53:34;;;;;;;23.20;11.00;;;;;;;;;;5003720;28;20203;-72
2023/02/11 12:56:03;;;;;;;16.23;11.07;;;;;;;;;;5003072;28;20182;-72
2023/02/11 12:58:30;;;;;;;14.70;9.47;;;;;;;;;;4999662;28;20557;-72
2023/02/11 13:00:57;;;;;;;9.43;6.90;;;;;;;;;;5010347;28;20210;-75
2023/02/11 13:03:43;;;;;;;9.65;7.30;;;;;;;;;;5007437;28;20208;-75
2023/02/11 13:06:11;;;;;;;9.25;6.55;;;;;;;;;;4999051;28;20191;-74
2023/02/11 13:09:02;;;;;;;10.20;7.03;;;;;;;;;;4993489;28;20181;-74
2023/02/11 13:11:38;;;;;;;7.95;5.97;;;;;;;;;;4987567;28;20564;-74
2023/02/11 13:14:11;;;;;;;7.88;6.10;;;;;;;;;;4992612;28;20214;-74
2023/02/11 13:16:39;;;;;;;8.40;6.63;;;;;;;;;;4999853;28;20187;-74
2023/02/11 13:19:16;;;;;;;11.77;6.32;;;;;;;;;;4999125;28;20172;-74
2023/02/11 13:21:54;;;;;;;7.53;5.82;;;;;;;;;;4994211;28;20202;-74
2023/02/11 13:24:27;;;;;;;10.98;5.60;;;;;;;;;;4997400;28;20203;-74
2023/02/11 13:27:11;;;;;;;9.05;5.95;;;;;;;;;;5012406;28;20183;-74
2023/02/11 13:29:57;;;;;;;6.82;5.13;;;;;;;;;;4998617;28;20182;-75
2023/02/11 13:32:22;;;;;;;7.60;5.32;;;;;;;;;;4996474;28;20203;-73
2023/02/11 13:34:50;;;;;;;6.30;5.40;;;;;;;;;;5001223;28;20278;-73
2023/02/11 13:37:20;;;;;;;10.35;5.80;;;;;;;;;;4998937;28;20628;-73
2023/02/11 13:40:24;;;;;;;5.80;4.80;;;;;;;;;;5008457;28;20558;-73
2023/02/11 13:42:50;;;;;;;11.50;4.90;;;;;;;;;;4970113;28;20789;-73
2023/02/11 13:45:27;;;;;;;9.30;5.55;;;;;;;;;;4968201;28;20267;-74
2023/02/11 13:47:57;;;;;;;6.32;4.78;;;;;;;;;;4990404;28;20190;-74
2023/02/11 13:50:22;;;;;;;8.60;4.75;;;;;;;;;;5007863;28;20613;-74
2023/02/11 13:52:55;;;;;;;6.05;4.68;;;;;;;;;;4983985;28;20269;-74
2023/02/11 13:55:22;;;;;;;5.45;4.25;;;;;;;;;;4997287;28;20295;-75
2023/02/11 13:58:07;;;;;;;10.00;6.20;;;;;;;;;;4995155;28;20186;-74
2023/02/11 14:00:32;;;;;;;6.43;4.50;;;;;;;;;;4972060;28;20291;-74
2023/02/11 14:09:09;;;;;;;8.52;4.88;;;;;;;;;;4984150;28;20329;-73
2023/02/11 14:11:40;;;;;;;7.55;5.55;;;;;;;;;;4984765;28;20190;-73
2023/02/11 14:14:24;;;;;;;6.47;4.90;;;;;;;;;;4993757;28;20215;-73
2023/02/11 14:16:59;;;;;;;9.13;4.93;;;;;;;;;;4984421;28;20195;-73
2023/02/11 14:19:32;;;;;;;8.07;4.57;;;;;;;;;;4985193;28;20186;-73
2023/02/11 14:22:04;;;;;;;7.97;5.13;;;;;;;;;;4987275;28;20201;-73
2023/02/11 14:24:33;;;;;;;7.72;5.30;;;;;;;;;;4993715;28;20672;-73
2023/02/11 14:27:10;;;;;;;7.97;4.65;;;;;;;;;;5005295;28;20189;-73
2023/02/11 14:29:51;;;;;;;11.63;5.32;;;;;;;;;;4988360;28;20444;-73
2023/02/11 14:32:39;;;;;;;7.28;5.05;;;;;;;;;;4991530;28;20185;-73
2023/02/11 14:35:23;;;;;;;8.07;5.07;;;;;;;;;;4996156;28;20206;-73
2023/02/11 14:38:07;;;;;;;9.32;5.72;;;;;;;;;;4992812;28;20174;-73
2023/02/11 14:40:48;;;;;;;11.07;5.35;;;;;;;;;;4986286;28;20718;-73
2023/02/11 14:43:18;;;;;;;7.93;5.45;;;;;;;;;;4993014;28;20195;-73
2023/02/11 14:45:46;;;;;;;6.75;4.93;;;;;;;;;;4989755;28;20178;-73